createdAt,value
2022-07-25T00:01:34.424Z,18.30
2022-07-25T00:05:56.428Z,18.30
2022-07-25T00:10:18.887Z,18.40
2022-07-25T00:14:41.553Z,18.40
2022-07-25T00:19:03.587Z,18.50
2022-07-25T00:23:25.908Z,18.50
2022-07-25T00:27:48.171Z,18.50
2022-07-25T00:32:10.350Z,18.50
2022-07-25T00:36:32.308Z,18.40
2022-07-25T00:40:55.715Z,18.30
2022-07-25T00:45:18.052Z,18.40
2022-07-25T00:49:39.987Z,18.50
2022-07-25T00:54:02.475Z,18.40
2022-07-25T00:58:24.784Z,18.60
2022-07-25T01:02:47.403Z,18.90
2022-07-25T01:07:13.944Z,19.10
2022-07-25T01:11:35.805Z,19.30
2022-07-25T01:15:58.465Z,19.30
2022-07-25T01:20:22.809Z,19.40
2022-07-25T01:24:44.825Z,19.50
2022-07-25T01:29:07.161Z,19.50
2022-07-25T01:33:29.264Z,19.40
2022-07-25T01:37:51.585Z,19.40
2022-07-25T01:42:13.556Z,19.40
2022-07-25T01:46:35.773Z,19.40
2022-07-25T01:51:13.545Z,19.30
2022-07-25T01:55:35.633Z,19.20
2022-07-25T02:00:00.239Z,19.30
2022-07-25T02:04:23.014Z,19.20
2022-07-25T02:08:45.113Z,19.20
2022-07-25T02:13:07.412Z,19.10
2022-07-25T02:17:29.418Z,19.10
2022-07-25T02:21:51.633Z,19.10
2022-07-25T02:26:14.512Z,19.10
2022-07-25T02:30:36.444Z,19.00
2022-07-25T02:34:58.739Z,19.00
2022-07-25T02:39:21.512Z,19.00
2022-07-25T02:43:43.394Z,19.00
2022-07-25T02:48:05.512Z,19.20
2022-07-25T02:52:27.672Z,19.20
2022-07-25T02:56:49.533Z,19.20
2022-07-25T03:01:12.018Z,19.10
2022-07-25T03:05:34.387Z,19.10
2022-07-25T03:09:56.253Z,19.20
2022-07-25T03:14:18.314Z,19.30
2022-07-25T03:18:40.674Z,19.30
2022-07-25T03:23:02.853Z,19.40
2022-07-25T03:27:24.814Z,19.40
2022-07-25T03:31:46.510Z,19.40
2022-07-25T03:36:10.551Z,19.30
2022-07-25T03:40:32.598Z,19.30
2022-07-25T03:44:54.831Z,19.30
2022-07-25T03:49:17.132Z,19.50
2022-07-25T03:53:58.953Z,19.90
2022-07-25T03:58:20.894Z,20.40
2022-07-25T04:02:42.853Z,20.90
2022-07-25T04:07:05.235Z,21.40
2022-07-25T04:11:28.852Z,22.30
2022-07-25T04:15:50.993Z,22.90
2022-07-25T04:20:14.554Z,24.10
2022-07-25T04:24:38.052Z,25.50
2022-07-25T04:29:03.292Z,26.60
2022-07-25T04:33:26.033Z,28.70
2022-07-25T04:37:47.913Z,30.50
2022-07-25T04:42:09.932Z,31.40
2022-07-25T04:46:31.991Z,31.50
2022-07-25T04:50:54.492Z,32.10
2022-07-25T04:55:16.592Z,32.80
2022-07-25T04:59:38.453Z,32.90
2022-07-25T05:04:00.632Z,31.90
2022-07-25T05:08:22.424Z,32.10
2022-07-25T05:12:44.491Z,33.10
2022-07-25T05:17:06.757Z,33.70
2022-07-25T05:21:28.982Z,33.70
2022-07-25T05:25:51.197Z,33.80
2022-07-25T05:30:15.394Z,34.10
2022-07-25T05:34:37.562Z,35.00
2022-07-25T05:39:00.084Z,36.10
2022-07-25T05:43:21.972Z,36.70
2022-07-25T05:47:44.172Z,37.00
2022-07-25T05:52:12.441Z,37.00
2022-07-25T05:56:35.491Z,37.30
2022-07-25T06:00:59.011Z,38.00
2022-07-25T06:05:24.032Z,37.80
2022-07-25T06:09:58.252Z,38.50
2022-07-25T06:14:20.131Z,39.70
2022-07-25T06:18:47.932Z,40.70
2022-07-25T06:23:09.992Z,41.30
2022-07-25T06:27:32.091Z,41.00
2022-07-25T06:32:22.288Z,41.00
2022-07-25T06:36:44.165Z,40.30
2022-07-25T06:41:06.304Z,41.80
2022-07-25T06:45:29.665Z,43.20
2022-07-25T06:49:51.850Z,44.20
2022-07-25T06:54:15.747Z,44.90
2022-07-25T06:58:37.746Z,46.70
2022-07-25T07:03:02.531Z,48.00
2022-07-25T07:07:24.845Z,49.00
2022-07-25T07:11:46.684Z,49.30
2022-07-25T07:16:09.216Z,49.20
2022-07-25T07:20:31.364Z,49.60
2022-07-25T07:24:53.827Z,47.90
2022-07-25T07:29:15.846Z,46.80
2022-07-25T07:33:38.487Z,48.10
2022-07-25T07:38:00.527Z,49.60
2022-07-25T07:42:22.626Z,49.20
2022-07-25T07:46:44.828Z,48.80
2022-07-25T07:51:07.085Z,47.90
2022-07-25T07:55:44.642Z,47.90
2022-07-25T08:00:08.106Z,48.90
2022-07-25T08:04:34.326Z,48.50
2022-07-25T08:08:56.285Z,49.60
2022-07-25T08:13:23.785Z,49.60
2022-07-25T08:17:47.525Z,47.10
2022-07-25T08:22:09.856Z,47.10
2022-07-25T08:26:34.025Z,45.50
2022-07-25T08:30:56.177Z,44.20
2022-07-25T08:35:23.128Z,43.10
2022-07-25T08:39:45.305Z,43.70
2022-07-25T08:44:09.435Z,44.20
2022-07-25T08:48:32.060Z,44.90
2022-07-25T08:53:04.945Z,45.30
2022-07-25T08:57:38.465Z,45.40
2022-07-25T09:02:04.028Z,45.80
2022-07-25T09:06:26.186Z,43.30
2022-07-25T09:10:53.666Z,43.80
2022-07-25T09:15:35.281Z,46.50
2022-07-25T09:19:58.371Z,46.80
2022-07-25T09:24:22.705Z,46.10
2022-07-25T09:28:52.500Z,44.70
2022-07-25T09:33:14.265Z,44.90
2022-07-25T09:37:36.429Z,46.00
2022-07-25T09:41:58.765Z,45.80
2022-07-25T09:46:31.670Z,47.70
2022-07-25T09:50:55.525Z,49.30
2022-07-25T09:55:17.824Z,50.00
2022-07-25T09:59:39.985Z,47.70
2022-07-25T10:04:31.111Z,44.30
2022-07-25T10:08:54.266Z,44.50
2022-07-25T10:13:29.104Z,46.70
2022-07-25T10:18:04.285Z,45.10
2022-07-25T10:22:58.208Z,44.30
2022-07-25T10:27:25.156Z,44.10
2022-07-25T10:31:51.118Z,42.50
2022-07-25T10:36:13.706Z,44.00
2022-07-25T10:40:44.726Z,44.40
2022-07-25T10:45:09.690Z,43.00
2022-07-25T10:49:38.881Z,43.80
2022-07-25T10:54:18.504Z,45.20
2022-07-25T10:58:56.765Z,44.50
2022-07-25T11:03:19.022Z,40.60
2022-07-25T11:08:18.993Z,41.60
2022-07-25T11:12:35.146Z,44.40
2022-07-25T11:16:57.207Z,42.90
2022-07-25T11:21:19.285Z,41.90
2022-07-25T11:25:42.487Z,41.20
2022-07-25T11:30:16.505Z,38.90
2022-07-25T11:34:58.685Z,37.00
2022-07-25T11:39:22.106Z,36.10
2022-07-25T11:43:49.924Z,35.40
2022-07-25T11:48:15.385Z,34.80
2022-07-25T11:52:38.505Z,34.60
2022-07-25T11:57:00.687Z,34.50
2022-07-25T12:01:22.674Z,34.70
2022-07-25T12:05:45.126Z,34.60
2022-07-25T12:10:18.806Z,34.30
2022-07-25T12:14:44.413Z,34.20
2022-07-25T12:19:19.080Z,34.20
2022-07-25T12:23:42.492Z,34.20
2022-07-25T12:28:06.105Z,34.20
2022-07-25T12:32:28.107Z,34.40
2022-07-25T12:36:50.105Z,34.60
2022-07-25T12:41:17.506Z,34.60
2022-07-25T12:45:40.643Z,34.60
2022-07-25T12:50:03.526Z,34.40
2022-07-25T12:54:25.428Z,34.30
2022-07-25T12:58:47.546Z,34.10
2022-07-25T13:03:09.625Z,34.00
2022-07-25T13:07:33.506Z,34.00
2022-07-25T13:11:56.217Z,34.10
2022-07-25T13:16:18.222Z,34.00
2022-07-25T13:20:40.345Z,33.90
2022-07-25T13:25:02.345Z,33.80
2022-07-25T13:29:24.185Z,33.70
2022-07-25T13:33:47.026Z,33.80
2022-07-25T13:38:12.745Z,34.00
2022-07-25T13:42:34.744Z,34.00
2022-07-25T13:46:57.666Z,34.20
2022-07-25T13:51:19.846Z,34.30
2022-07-25T13:55:42.247Z,34.40
2022-07-25T14:00:07.224Z,34.40
2022-07-25T14:04:30.435Z,34.40
2022-07-25T14:08:52.494Z,34.40
2022-07-25T14:13:14.186Z,34.40
2022-07-25T14:17:36.778Z,34.50
2022-07-25T14:21:59.047Z,34.50
2022-07-25T14:26:21.306Z,34.50
2022-07-25T14:30:43.087Z,34.50
2022-07-25T14:35:06.286Z,34.50
2022-07-25T14:39:28.485Z,34.40
2022-07-25T14:43:50.826Z,34.30
2022-07-25T14:48:13.125Z,34.30
2022-07-25T14:52:35.166Z,34.20
2022-07-25T14:56:57.546Z,34.20
2022-07-25T15:01:21.319Z,34.20
2022-07-25T15:05:43.555Z,34.20
2022-07-25T15:10:06.446Z,34.30
2022-07-25T15:14:28.568Z,34.40
2022-07-25T15:19:15.357Z,34.40
2022-07-25T15:23:33.226Z,34.50
2022-07-25T15:27:54.946Z,34.80
2022-07-25T15:32:17.885Z,34.90
2022-07-25T15:36:40.365Z,34.80
2022-07-25T15:41:04.025Z,35.00
2022-07-25T15:45:33.841Z,35.50
2022-07-25T15:49:55.965Z,35.80
2022-07-25T15:54:18.526Z,35.70
2022-07-25T15:58:40.606Z,35.30
2022-07-25T16:03:03.125Z,34.80
2022-07-25T16:07:25.159Z,34.40
2022-07-25T16:11:47.185Z,34.00
2022-07-25T16:16:10.259Z,33.80
2022-07-25T16:20:34.023Z,33.80
2022-07-25T16:24:56.025Z,33.90
2022-07-25T16:29:18.327Z,34.20
2022-07-25T16:33:41.645Z,34.40
2022-07-25T16:38:04.088Z,34.40
2022-07-25T16:42:25.966Z,34.20
2022-07-25T16:46:48.242Z,34.00
2022-07-25T16:51:10.350Z,33.80
2022-07-25T16:55:32.366Z,33.60
2022-07-25T16:59:54.206Z,33.70
2022-07-25T17:04:16.285Z,33.80
2022-07-25T17:08:38.514Z,34.00
2022-07-25T17:13:01.967Z,34.10
2022-07-25T17:17:24.331Z,34.00
2022-07-25T17:21:46.085Z,33.90
2022-07-25T17:26:08.089Z,33.60
2022-07-25T17:30:30.388Z,33.20
2022-07-25T17:34:53.606Z,32.80
2022-07-25T17:39:15.865Z,31.90
2022-07-25T17:43:38.611Z,30.70
2022-07-25T17:48:00.545Z,29.70
2022-07-25T17:52:22.372Z,29.00
2022-07-25T17:56:45.622Z,28.40
2022-07-25T18:01:10.516Z,27.90
2022-07-25T18:05:33.373Z,27.40
2022-07-25T18:09:55.340Z,27.10
2022-07-25T18:14:17.203Z,26.80
2022-07-25T18:18:39.974Z,26.70
2022-07-25T18:23:01.974Z,26.70
2022-07-25T18:27:23.953Z,26.80
2022-07-25T18:31:46.129Z,26.90
2022-07-25T18:36:08.493Z,26.90
2022-07-25T18:40:31.035Z,26.80
2022-07-25T18:44:53.254Z,26.60
2022-07-25T18:49:15.608Z,26.50
2022-07-25T18:53:38.233Z,26.20
2022-07-25T18:58:00.174Z,26.10
2022-07-25T19:02:22.045Z,25.90
2022-07-25T19:06:44.272Z,25.80
2022-07-25T19:11:06.433Z,25.80
2022-07-25T19:15:28.896Z,25.80
2022-07-25T19:19:52.233Z,25.70
2022-07-25T19:24:14.753Z,25.60
2022-07-25T19:28:36.912Z,25.60
2022-07-25T19:32:59.213Z,25.60
2022-07-25T19:37:21.477Z,25.50
2022-07-25T19:41:46.888Z,25.50
2022-07-25T19:46:09.232Z,25.40
2022-07-25T19:50:31.215Z,25.30
2022-07-25T19:54:54.711Z,25.20
2022-07-25T19:59:17.192Z,25.00
2022-07-25T20:03:39.921Z,25.00
2022-07-25T20:08:02.196Z,24.80
2022-07-25T20:12:24.273Z,24.60
2022-07-25T20:16:46.561Z,24.50
2022-07-25T20:21:08.874Z,24.40
2022-07-25T20:25:30.774Z,24.30
2022-07-25T20:29:52.800Z,24.40
2022-07-25T20:34:15.815Z,24.30
2022-07-25T20:38:37.874Z,24.20
2022-07-25T20:43:00.218Z,24.10
2022-07-25T20:47:22.593Z,24.00
2022-07-25T20:51:44.667Z,23.90
2022-07-25T20:56:06.557Z,23.90
2022-07-25T21:00:30.622Z,24.00
2022-07-25T21:04:52.713Z,24.00
2022-07-25T21:09:15.392Z,24.10
2022-07-25T21:13:37.600Z,24.10
2022-07-25T21:17:59.812Z,24.10
2022-07-25T21:22:21.695Z,24.00
2022-07-25T21:26:43.896Z,23.90
2022-07-25T21:31:06.213Z,23.90
2022-07-25T21:35:28.104Z,23.70
2022-07-25T21:39:50.817Z,23.70
2022-07-25T21:44:13.005Z,23.60
2022-07-25T21:48:54.534Z,23.60
2022-07-25T21:53:17.093Z,23.50
2022-07-25T21:57:39.133Z,23.40
2022-07-25T22:02:01.212Z,23.30
2022-07-25T22:06:23.132Z,23.30
2022-07-25T22:10:45.414Z,23.20
2022-07-25T22:15:12.232Z,23.10
2022-07-25T22:19:34.380Z,23.10
2022-07-25T22:23:56.653Z,23.00
2022-07-25T22:28:21.192Z,23.10
2022-07-25T22:32:43.512Z,23.00
2022-07-25T22:37:05.912Z,22.90
2022-07-25T22:41:27.993Z,22.70
2022-07-25T22:45:51.913Z,22.50
2022-07-25T22:50:13.974Z,22.40
2022-07-25T22:54:36.712Z,22.20
2022-07-25T22:58:58.892Z,22.10
2022-07-25T23:03:21.559Z,21.90
2022-07-25T23:07:43.693Z,21.80
2022-07-25T23:12:06.313Z,21.60
2022-07-25T23:16:28.800Z,21.50
2022-07-25T23:20:50.910Z,21.40
2022-07-25T23:25:13.412Z,21.20
2022-07-25T23:29:35.652Z,21.10
2022-07-25T23:33:57.773Z,21.00
2022-07-25T23:38:19.734Z,20.80
2022-07-25T23:42:43.012Z,20.80
2022-07-25T23:47:05.065Z,20.70
2022-07-25T23:51:32.552Z,20.80
2022-07-25T23:55:54.753Z,20.80
